createdAt,value
2022-10-22T00:03:51.963Z,65.20
2022-10-22T00:06:27.992Z,64.90
2022-10-22T00:08:58.015Z,65.10
2022-10-22T00:11:33.974Z,65.10
2022-10-22T00:14:03.962Z,64.90
2022-10-22T00:16:34.145Z,65.20
2022-10-22T00:19:00.616Z,65.00
2022-10-22T00:21:27.090Z,65.20
2022-10-22T00:23:53.574Z,65.00
2022-10-22T00:26:28.133Z,65.10
2022-10-22T00:28:57.997Z,65.10
2022-10-22T00:31:24.473Z,65.10
2022-10-22T00:39:32.025Z,65.40
2022-10-22T00:42:03.998Z,65.30
2022-10-22T00:44:30.468Z,65.40
2022-10-22T00:46:57.960Z,65.50
2022-10-22T00:52:15.070Z,65.20
2022-10-22T00:54:41.555Z,65.40
2022-10-22T00:57:08.026Z,65.60
2022-10-22T00:59:34.498Z,65.50
2022-10-22T01:04:45.235Z,65.40
2022-10-22T01:07:16.047Z,65.40
2022-10-22T01:09:42.535Z,65.40
2022-10-22T01:12:09.004Z,65.50
2022-10-22T01:14:35.487Z,65.50
2022-10-22T01:17:03.993Z,65.30
2022-10-22T01:19:30.479Z,65.20
2022-10-22T01:21:56.956Z,65.30
2022-10-22T01:24:28.029Z,65.30
2022-10-22T01:29:38.629Z,65.30
2022-10-22T01:32:05.100Z,65.30
2022-10-22T01:34:31.573Z,65.40
2022-10-22T01:37:04.258Z,65.50
2022-10-22T01:39:34.053Z,65.40
2022-10-22T01:56:08.051Z,65.70
2022-10-22T01:58:34.549Z,65.50
2022-10-22T02:01:01.074Z,65.70
2022-10-22T02:03:28.023Z,65.50
2022-10-22T02:05:54.498Z,65.60
2022-10-22T02:13:58.070Z,65.40
2022-10-22T02:22:10.082Z,65.70
2022-10-22T02:24:40.077Z,65.60
2022-10-22T02:27:10.234Z,65.90
2022-10-22T02:29:40.097Z,65.60
2022-10-22T02:32:06.551Z,65.70
2022-10-22T02:34:33.040Z,65.80
2022-10-22T02:37:10.209Z,65.60
2022-10-22T02:39:36.705Z,65.80
2022-10-22T02:42:04.059Z,65.70
2022-10-22T02:44:34.091Z,65.90
2022-10-22T02:47:10.127Z,66.00
2022-10-22T02:49:36.596Z,65.90
2022-10-22T02:52:04.063Z,65.90
2022-10-22T03:00:11.115Z,65.80
2022-10-22T03:13:54.048Z,65.70
2022-10-22T03:24:52.135Z,66.10
2022-10-22T03:27:28.174Z,66.20
2022-10-22T03:32:46.126Z,66.10
2022-10-22T03:38:02.758Z,66.20
2022-10-22T03:46:16.154Z,66.00
2022-10-22T03:48:46.150Z,66.00
2022-10-22T03:54:03.163Z,66.10
2022-10-22T03:56:29.658Z,66.10
2022-10-22T03:59:04.172Z,66.10
2022-10-22T04:01:31.025Z,66.00
2022-10-22T04:03:57.540Z,65.90
2022-10-22T04:06:24.011Z,65.90
2022-10-22T04:09:04.345Z,65.80
2022-10-22T04:11:34.189Z,65.70
2022-10-22T04:14:04.360Z,65.80
2022-10-22T04:16:30.843Z,66.00
2022-10-22T04:21:46.176Z,66.00
2022-10-22T04:26:57.114Z,66.10
2022-10-22T04:29:23.583Z,66.10
2022-10-22T04:37:34.198Z,66.10
2022-10-22T04:40:04.381Z,66.10
2022-10-22T04:42:34.203Z,66.20
2022-10-22T04:45:00.673Z,66.10
2022-10-22T04:47:27.151Z,66.30
2022-10-22T04:49:53.607Z,66.30
2022-10-22T04:52:22.198Z,66.10
2022-10-22T04:55:04.204Z,66.20
2022-10-22T05:03:11.045Z,66.10
2022-10-22T05:05:37.551Z,66.00
2022-10-22T05:08:04.163Z,66.00
2022-10-22T05:10:30.665Z,66.10
2022-10-22T05:12:58.191Z,66.00
2022-10-22T05:18:18.985Z,66.20
2022-10-22T05:23:38.894Z,66.20
2022-10-22T05:26:10.213Z,66.40
2022-10-22T05:28:36.680Z,66.20
2022-10-22T05:45:18.043Z,66.30
2022-10-22T05:47:44.514Z,66.30
2022-10-22T05:55:53.145Z,66.10
2022-10-22T06:09:40.280Z,66.10
2022-10-22T06:12:10.288Z,65.90
2022-10-22T06:14:52.277Z,65.70
2022-10-22T06:25:50.091Z,66.20
2022-10-22T06:28:34.464Z,66.10
2022-10-22T06:36:46.290Z,66.20
2022-10-22T06:39:12.750Z,66.00
2022-10-22T06:41:39.250Z,66.10
2022-10-22T06:44:22.452Z,66.20
2022-10-22T07:01:02.404Z,66.00
2022-10-22T07:03:46.351Z,65.80
2022-10-22T07:06:12.840Z,65.90
2022-10-22T07:08:40.300Z,66.10
2022-10-22T07:11:10.317Z,65.90
2022-10-22T07:13:46.515Z,66.00
2022-10-22T07:21:54.104Z,66.00
2022-10-22T07:24:20.597Z,66.00
2022-10-22T07:26:47.078Z,65.80
2022-10-22T07:29:28.345Z,65.90
2022-10-22T07:31:54.822Z,65.90
2022-10-22T07:34:21.695Z,66.00
2022-10-22T07:36:52.322Z,65.90
2022-10-22T07:39:22.401Z,65.80
2022-10-22T07:41:48.888Z,65.60
2022-10-22T07:44:15.368Z,65.60
2022-10-22T07:46:43.523Z,65.80
2022-10-22T07:49:11.955Z,65.60
2022-10-22T07:51:38.448Z,65.60
2022-10-22T07:54:10.351Z,65.70
2022-10-22T07:56:36.811Z,65.60
2022-10-22T07:59:03.303Z,65.60
2022-10-22T08:01:29.817Z,65.50
2022-10-22T08:03:56.384Z,65.60
2022-10-22T08:09:16.414Z,65.60
2022-10-22T08:14:33.093Z,65.80
2022-10-22T08:16:59.646Z,65.70
2022-10-22T08:25:01.262Z,65.60
2022-10-22T08:27:28.382Z,65.60
2022-10-22T08:29:58.398Z,65.50
2022-10-22T08:32:24.872Z,65.60
2022-10-22T08:34:52.325Z,65.60
2022-10-22T08:37:22.376Z,65.50
2022-10-22T08:39:48.857Z,65.50
2022-10-22T08:42:15.314Z,65.50
2022-10-22T08:44:46.566Z,65.50
2022-10-22T08:50:04.409Z,65.40
2022-10-22T08:52:34.414Z,65.50
2022-10-22T08:55:00.886Z,65.60
2022-10-22T09:00:17.896Z,65.50
2022-10-22T09:02:44.594Z,65.60
2022-10-22T09:05:22.451Z,65.60
2022-10-22T09:07:52.397Z,65.70
2022-10-22T09:10:28.606Z,65.60
2022-10-22T09:12:55.070Z,65.80
2022-10-22T09:15:21.667Z,65.70
2022-10-22T09:17:48.150Z,65.80
2022-10-22T09:20:14.628Z,65.70
2022-10-22T09:22:41.439Z,65.60
2022-10-22T09:25:10.393Z,65.60
2022-10-22T09:27:36.873Z,65.60
2022-10-22T09:32:52.415Z,65.60
2022-10-22T09:38:02.895Z,65.50
2022-10-22T09:40:29.365Z,65.60
2022-10-22T09:45:46.097Z,65.60
2022-10-22T09:48:16.642Z,65.60
2022-10-22T09:50:52.443Z,65.60
2022-10-22T09:53:18.931Z,65.80
2022-10-22T09:55:46.593Z,65.60
2022-10-22T09:58:22.641Z,65.60
2022-10-22T10:03:39.852Z,65.50
2022-10-22T10:08:58.505Z,65.60
2022-10-22T10:11:29.408Z,65.60
2022-10-22T10:13:56.082Z,65.60
2022-10-22T10:19:12.881Z,65.60
2022-10-22T10:21:40.468Z,65.70
2022-10-22T10:24:06.937Z,65.60
2022-10-22T10:35:06.187Z,65.50
2022-10-22T10:37:32.671Z,65.50
2022-10-22T10:39:59.129Z,65.60
2022-10-22T10:42:25.612Z,65.60
2022-10-22T10:44:52.101Z,65.30
2022-10-22T10:47:22.484Z,65.50
2022-10-22T10:50:04.531Z,65.50
2022-10-22T10:58:12.166Z,65.50
2022-10-22T11:00:38.646Z,65.50
2022-10-22T11:03:10.509Z,65.50
2022-10-22T11:05:36.980Z,65.40
2022-10-22T11:08:03.594Z,65.50
2022-10-22T11:10:34.637Z,65.30
2022-10-22T11:15:52.493Z,65.30
2022-10-22T11:18:18.969Z,65.20
2022-10-22T11:20:45.481Z,65.30
2022-10-22T11:23:20.981Z,65.40
2022-10-22T11:25:48.185Z,65.30
2022-10-22T11:33:33.225Z,65.20
2022-10-22T11:35:59.715Z,65.20
2022-10-22T11:38:30.656Z,65.20
2022-10-22T11:43:50.060Z,65.30
2022-10-22T11:46:16.565Z,65.20
2022-10-22T11:48:43.037Z,65.10
2022-10-22T11:51:09.522Z,65.20
2022-10-22T11:53:40.727Z,65.20
2022-10-22T11:56:07.213Z,65.10
2022-10-22T11:58:34.515Z,65.30
2022-10-22T12:01:01.014Z,65.30
2022-10-22T12:03:28.510Z,65.20
2022-10-22T12:05:55.000Z,65.10
2022-10-22T12:08:28.629Z,65.10
2022-10-22T12:10:55.105Z,65.00
2022-10-22T12:13:40.748Z,64.80
2022-10-22T12:16:12.893Z,65.10
2022-10-22T12:18:41.325Z,65.10
2022-10-22T12:21:07.795Z,65.00
2022-10-22T12:23:34.523Z,65.00
2022-10-22T12:26:04.582Z,65.10
2022-10-22T12:28:31.053Z,65.30
2022-10-22T12:30:57.544Z,65.10
2022-10-22T12:33:24.049Z,65.30
2022-10-22T12:35:50.527Z,65.10
2022-10-22T12:38:28.721Z,65.20
2022-10-22T12:40:58.598Z,65.10
2022-10-22T12:43:28.746Z,65.20
2022-10-22T12:45:58.590Z,65.20
2022-10-22T12:48:28.630Z,65.10
2022-10-22T12:50:55.114Z,65.10
2022-10-22T12:53:21.590Z,65.00
2022-10-22T13:01:34.607Z,65.00
2022-10-22T13:04:01.075Z,65.10
2022-10-22T13:09:17.934Z,65.00
2022-10-22T13:11:44.507Z,65.10
2022-10-22T13:14:16.824Z,64.90
2022-10-22T13:16:46.616Z,65.00
2022-10-22T13:19:28.692Z,65.00
2022-10-22T13:21:55.151Z,65.00
2022-10-22T13:24:21.636Z,65.00
2022-10-22T13:29:38.919Z,65.00
2022-10-22T13:32:05.380Z,65.30
2022-10-22T13:34:31.846Z,64.90
2022-10-22T13:42:39.275Z,65.00
2022-10-22T13:45:10.636Z,65.00
2022-10-22T13:47:37.122Z,65.10
2022-10-22T13:50:04.625Z,64.80
2022-10-22T13:55:22.041Z,64.80
2022-10-22T13:57:48.500Z,64.80
2022-10-22T14:00:16.609Z,64.90
2022-10-22T14:02:46.650Z,64.90
2022-10-22T14:05:13.119Z,64.90
2022-10-22T14:10:34.664Z,64.80
2022-10-22T14:13:01.144Z,64.90
2022-10-22T14:15:27.625Z,64.80
2022-10-22T14:17:54.090Z,64.80
2022-10-22T14:20:20.578Z,64.80
2022-10-22T14:22:47.055Z,64.80
2022-10-22T14:25:13.516Z,64.70
2022-10-22T14:27:40.099Z,64.70
2022-10-22T14:30:06.771Z,64.80
2022-10-22T14:32:33.240Z,64.70
2022-10-22T14:35:10.814Z,64.80
2022-10-22T14:37:37.292Z,64.70
2022-10-22T14:40:10.768Z,64.60
2022-10-22T14:42:37.226Z,64.70
2022-10-22T14:45:03.692Z,64.70
2022-10-22T14:47:30.168Z,64.60
2022-10-22T14:50:10.724Z,64.80
2022-10-22T14:55:28.723Z,64.70
2022-10-22T15:00:39.477Z,64.70
2022-10-22T15:03:10.794Z,64.70
2022-10-22T15:05:37.259Z,64.80
2022-10-22T15:08:03.733Z,64.70
2022-10-22T15:13:21.356Z,64.70
2022-10-22T15:15:52.699Z,64.60
2022-10-22T15:18:28.716Z,64.60
2022-10-22T15:20:55.175Z,64.70
2022-10-22T15:23:21.647Z,64.70
2022-10-22T15:25:48.128Z,64.70
2022-10-22T15:28:14.623Z,64.70
2022-10-22T15:33:34.728Z,64.70
2022-10-22T15:38:52.273Z,64.70
2022-10-22T15:41:18.779Z,64.60
2022-10-22T15:46:34.550Z,64.60
2022-10-22T15:49:04.696Z,64.60
2022-10-22T15:51:34.747Z,64.60
2022-10-22T15:54:01.225Z,64.50
2022-10-22T15:56:27.703Z,64.50
2022-10-22T15:59:10.910Z,64.50
2022-10-22T16:01:37.396Z,64.50
2022-10-22T16:06:47.875Z,64.30
2022-10-22T16:09:14.446Z,64.60
2022-10-22T16:17:22.243Z,64.50
2022-10-22T16:19:52.942Z,64.60
2022-10-22T16:22:19.418Z,64.60
2022-10-22T16:24:46.735Z,64.50
2022-10-22T16:27:13.225Z,64.60
2022-10-22T16:29:46.911Z,64.60
2022-10-22T16:37:58.785Z,64.70
2022-10-22T16:40:25.263Z,64.70
2022-10-22T16:42:52.801Z,64.50
2022-10-22T16:45:19.292Z,64.50
2022-10-22T16:47:45.773Z,64.50
2022-10-22T16:50:12.254Z,64.50
2022-10-22T16:52:40.779Z,64.50
2022-10-22T16:55:07.250Z,64.40
2022-10-22T17:00:24.399Z,64.60
2022-10-22T17:02:52.815Z,64.60
2022-10-22T17:05:19.282Z,64.50
2022-10-22T17:07:45.779Z,64.50
2022-10-22T17:10:17.130Z,64.40
2022-10-22T17:12:43.869Z,64.50
2022-10-22T17:15:10.496Z,64.40
2022-10-22T17:17:40.808Z,64.40
2022-10-22T17:20:22.951Z,64.50
2022-10-22T17:22:52.822Z,64.50
2022-10-22T17:25:19.288Z,64.40
2022-10-22T17:27:46.821Z,64.40
2022-10-22T17:30:16.847Z,64.40
2022-10-22T17:35:40.836Z,64.40
2022-10-22T17:38:07.318Z,64.40
2022-10-22T17:40:34.788Z,64.30
2022-10-22T17:45:52.229Z,64.40
2022-10-22T17:48:22.874Z,64.40
2022-10-22T17:53:40.858Z,64.30
2022-10-22T17:56:07.334Z,64.40
2022-10-22T17:58:33.808Z,64.50
2022-10-22T18:01:04.928Z,64.40
2022-10-22T18:03:31.422Z,64.30
2022-10-22T18:05:58.842Z,64.40
2022-10-22T18:08:25.298Z,64.30
2022-10-22T18:10:51.780Z,64.30
2022-10-22T18:13:22.951Z,64.30
2022-10-22T18:18:39.877Z,64.20
2022-10-22T18:21:06.378Z,64.30
2022-10-22T18:23:32.835Z,64.30
2022-10-22T18:26:04.871Z,64.30
2022-10-22T18:28:47.063Z,64.30
2022-10-22T18:31:13.526Z,64.30
2022-10-22T18:36:24.095Z,64.40
2022-10-22T18:38:58.879Z,64.40
2022-10-22T18:44:15.892Z,64.30
2022-10-22T18:46:46.896Z,64.30
2022-10-22T18:49:13.368Z,64.50
2022-10-22T18:54:30.240Z,64.40
2022-10-22T18:56:59.368Z,64.40
2022-10-22T18:59:28.405Z,64.40
2022-10-22T19:01:54.889Z,64.40
2022-10-22T19:04:22.863Z,64.30
2022-10-22T19:09:40.307Z,64.60
2022-10-22T19:12:06.795Z,64.40
2022-10-22T19:14:33.268Z,64.50
2022-10-22T19:16:59.734Z,64.60
2022-10-22T19:19:26.207Z,64.60
2022-10-22T19:21:52.918Z,64.40
2022-10-22T19:24:22.943Z,64.40
2022-10-22T19:26:49.434Z,64.50
2022-10-22T19:32:00.245Z,64.40
2022-10-22T19:34:26.776Z,64.40
2022-10-22T19:39:44.049Z,64.40
2022-10-22T19:42:16.919Z,64.30
2022-10-22T19:44:43.396Z,64.30
2022-10-22T19:47:09.865Z,64.40
2022-10-22T19:52:20.324Z,64.50
2022-10-22T19:57:45.457Z,64.40
2022-10-22T20:00:16.954Z,64.50
2022-10-22T20:02:43.431Z,64.60
2022-10-22T20:05:09.951Z,64.40
2022-10-22T20:13:17.018Z,64.50
2022-10-22T20:15:46.973Z,64.40
2022-10-22T20:18:13.452Z,64.60
2022-10-22T20:26:21.240Z,64.40
2022-10-22T20:28:47.722Z,64.50
2022-10-22T20:34:10.984Z,64.60
2022-10-22T20:36:37.456Z,64.40
2022-10-22T20:39:03.927Z,64.60
2022-10-22T20:41:30.410Z,64.60
2022-10-22T20:43:56.877Z,64.60
2022-10-22T20:49:16.990Z,64.50
2022-10-22T20:54:40.986Z,64.60
2022-10-22T20:57:07.470Z,64.60
2022-10-22T20:59:34.948Z,64.50
2022-10-22T21:02:05.006Z,64.40
2022-10-22T21:04:31.476Z,64.50
2022-10-22T21:06:58.991Z,64.50
2022-10-22T21:09:25.456Z,64.40
2022-10-22T21:11:51.934Z,64.40
2022-10-22T21:14:18.401Z,64.60
2022-10-22T21:16:44.867Z,64.60
2022-10-22T21:19:11.339Z,64.50
2022-10-22T21:21:41.024Z,64.60
2022-10-22T21:24:07.487Z,64.60
2022-10-22T21:26:35.017Z,64.60
2022-10-22T21:29:17.027Z,64.50
2022-10-22T21:34:38.190Z,64.40
2022-10-22T21:42:46.322Z,64.40
2022-10-22T21:45:20.039Z,64.30
2022-10-22T21:47:48.651Z,64.40
2022-10-22T21:53:09.354Z,64.20
2022-10-22T21:55:35.829Z,64.20
2022-10-22T21:58:02.284Z,64.20
2022-10-22T22:00:28.755Z,64.10
2022-10-22T22:02:55.225Z,64.30
2022-10-22T22:05:21.722Z,64.30
2022-10-22T22:07:48.196Z,64.20
2022-10-22T22:10:17.018Z,64.30
2022-10-22T22:12:47.044Z,64.30
2022-10-22T22:15:17.120Z,64.30
2022-10-22T22:17:47.044Z,64.30
2022-10-22T22:20:29.163Z,64.20
2022-10-22T22:25:46.193Z,64.30
2022-10-22T22:28:23.258Z,64.40
2022-10-22T22:30:49.764Z,64.30
2022-10-22T22:33:17.030Z,64.20
2022-10-22T22:35:43.527Z,64.30
2022-10-22T22:38:11.040Z,64.20
2022-10-22T22:40:37.530Z,64.40
2022-10-22T22:43:11.156Z,64.40
2022-10-22T22:45:41.097Z,64.40
2022-10-22T22:48:07.554Z,64.30
2022-10-22T22:50:34.031Z,64.50
2022-10-22T22:53:03.527Z,64.40
2022-10-22T22:55:30.006Z,64.40
2022-10-22T23:00:47.109Z,64.30
2022-10-22T23:03:29.116Z,64.40
2022-10-22T23:08:47.164Z,64.30
2022-10-22T23:14:05.120Z,64.50
2022-10-22T23:25:05.133Z,64.50
2022-10-22T23:27:31.604Z,64.40
2022-10-22T23:35:47.122Z,64.50
2022-10-22T23:43:48.044Z,64.50
2022-10-22T23:46:14.532Z,64.40
2022-10-22T23:48:41.006Z,64.40
2022-10-22T23:53:58.370Z,64.40
2022-10-22T23:56:24.866Z,64.40
